Cepheus Leader — 3EIB2 — position and weather

sailwx.info

Track history (hours):
 
Tides and Currents Weather Stations Pressure Air Temp Water Temp Dewpoint Dewpoint Depression Visibility Wind Speed Wind Dir Waves Ship Positions

Cepheus Leader

Last reported at 2017-Oct-17 21:17 UTC. Time now 2017-Oct-18 04:06 UTC.
Position N 41°17' E 002°11'.

Length 199 m; draft 8.7 m.

Type: Cargo ship. MMSI: 372056000.

Date/timePositionNaut miles runAvg speedWind from/ knotsBaromVisibWave heightAir tempDewpointWater temp
2017-Oct-17 21:17N 41°17' E 002°11'2 0.1
2017-Oct-17 03:03N 41°19' E 002°10'0 8.2
2017-Oct-17 03:00N 41°18' E 002°11'3 6.6
2017-Oct-17 02:30N 41°15' E 002°12'4 7.4
2017-Oct-17 02:00N 41°11' E 002°11'612.8
2017-Oct-17 01:30N 41°06' E 002°07'917.3
2017-Oct-17 00:59N 40°58' E 002°01'917.6
2017-Oct-17 00:29N 40°50' E 001°55'20217.9
2017-Oct-16 13:15N 37°54' W 000°13'516.7
2017-Oct-16 12:55N 37°50' W 000°16'716.8
2017-Oct-16 12:30N 37°44' W 000°21'816.7
2017-Oct-16 12:00N 37°37' W 000°27'816.7
2017-Oct-16 11:30N 37°31' W 000°34'916.8
2017-Oct-16 11:00N 37°25' W 000°42'816.9
2017-Oct-16 10:30N 37°19' W 000°49'1016.9
2017-Oct-16 09:56N 37°13' W 000°59'20916.5
2017-Oct-15 21:16N 36°02' W 005°03'517.5
2017-Oct-15 21:00N 36°02' W 005°09'917.8
2017-Oct-15 20:30N 35°59' W 005°20'917.7
2017-Oct-15 20:00N 35°57' W 005°30'816.2
2017-Oct-15 19:30N 35°54' W 005°40'814.2
2017-Oct-15 18:58N 35°54' W 005°49'2315.7
2017-Oct-15 17:28N 35°54' W 006°18'4415.9
2017-Oct-15 14:41N 36°05' W 007°11'1116.6
2017-Oct-15 14:01N 36°08' W 007°25'816.4
2017-Oct-15 13:30N 36°10' W 007°34'816.4
2017-Oct-15 13:01N 36°13' W 007°44'816.2
2017-Oct-15 12:31N 36°15' W 007°54'816.5
2017-Oct-15 12:01N 36°17' W 008°04'816.7
2017-Oct-15 11:30N 36°19' W 008°14'816.5
2017-Oct-15 11:01N 36°21' W 008°24'816.4
2017-Oct-15 10:31N 36°23' W 008°34'816.5
2017-Oct-15 10:01N 36°25' W 008°44'816.9
2017-Oct-15 09:31N 36°27' W 008°54'917.7
2017-Oct-15 09:00N 36°30' W 009°04'917.2
2017-Oct-15 08:30N 36°33' W 009°14'917.1
2017-Oct-15 08:00N 36°38' W 009°23'917.5
2017-Oct-15 07:31N 36°44' W 009°30'816.4
2017-Oct-15 07:01N 36°52' W 009°35'917.1
2017-Oct-15 06:30N 36°60' W 009°37'1317.2
2017-Oct-15 05:43N 37°13' W 009°41'416.9
2017-Oct-15 05:29N 37°17' W 009°42'816.6
2017-Oct-15 05:00N 37°25' W 009°44'817.1
2017-Oct-15 04:31N 37°33' W 009°47'917.2
2017-Oct-15 04:00N 37°41' W 009°49'817.0
2017-Oct-15 03:31N 37°50' W 009°52'917.1
2017-Oct-15 03:01N 37°58' W 009°54'917.0
2017-Oct-15 02:31N 38°06' W 009°57'917.2
2017-Oct-15 02:01N 38°15' W 009°59'917.0
2017-Oct-15 01:31N 38°23' W 010°02'917.3
2017-Oct-15 01:01N 38°31' W 010°04'917.2
2017-Oct-15 00:31N 38°40' W 010°07'917.0
2017-Oct-15 00:00N 38°48' W 010°08'816.8
2017-Oct-14 23:31N 38°57' W 010°08'917.1
2017-Oct-14 23:01N 39°05' W 010°08'917.2
2017-Oct-14 22:30N 39°14' W 010°08'917.1
2017-Oct-14 22:01N 39°22' W 010°08'816.7
2017-Oct-14 21:30N 39°31' W 010°07'816.4
2017-Oct-14 21:00N 39°39' W 010°07'816.8
2017-Oct-14 20:31N 39°47' W 010°07'917.1
2017-Oct-14 20:00N 39°56' W 010°07'917.3
2017-Oct-14 19:30N 40°05' W 010°07'54216.3
2017-Oct-13 10:11N 48°38' W 006°03'1415.4
2017-Oct-13 09:18N 48°50' W 005°53'514.9
2017-Oct-13 08:57N 48°54' W 005°48'815.1
2017-Oct-13 08:26N 48°59' W 005°39'615.1
2017-Oct-13 08:00N 49°03' W 005°31'815.2
2017-Oct-13 07:30N 49°07' W 005°21'815.2
2017-Oct-13 06:59N 49°11' W 005°11'815.5
2017-Oct-13 06:30N 49°15' W 005°01'915.8
2017-Oct-13 05:57N 49°20' W 004°49'1216.1
2017-Oct-13 05:12N 49°25' W 004°33'316.2
2017-Oct-13 05:00N 49°27' W 004°29'816.1
2017-Oct-13 04:30N 49°31' W 004°18'816.3
2017-Oct-13 04:00N 49°35' W 004°07'816.1
2017-Oct-13 03:30N 49°38' W 003°56'815.9
2017-Oct-13 03:01N 49°42' W 003°46'815.7
2017-Oct-13 02:29N 49°47' W 003°34'715.2
2017-Oct-13 02:00N 49°50' W 003°25'815.0
2017-Oct-13 01:30N 49°54' W 003°15'714.9
2017-Oct-13 01:01N 49°57' W 003°04'714.8
2017-Oct-13 00:31N 49°60' W 002°54'714.8
2017-Oct-13 00:00N 50°02' W 002°43'714.7
2017-Oct-12 23:30N 50°05' W 002°32'914.9
2017-Oct-12 22:55N 50°08' W 002°19'1015.4
2017-Oct-12 22:17N 50°12' W 002°05'415.9
2017-Oct-12 22:01N 50°14' W 001°59'1316.6
2017-Oct-12 21:13N 50°20' W 001°41'417.3
2017-Oct-12 21:00N 50°22' W 001°36'917.5
2017-Oct-12 20:28N 50°26' W 001°23'818.0
2017-Oct-12 20:00N 50°30' W 001°12'917.9
2017-Oct-12 19:30N 50°35' W 000°60'713.4
2017-Oct-12 19:01N 50°42' W 000°58'611.2
2017-Oct-12 18:31N 50°45' W 001°06'713.8
2017-Oct-12 18:00N 50°46' W 001°16'4 8.0
2017-Oct-12 17:31N 50°50' W 001°19'4 8.9
2017-Oct-12 17:00N 50°53' W 001°24'1 2.5
2017-Oct-12 16:30N 50°54' W 001°25'0 0.0
2017-Oct-11 19:18N 50°54' W 001°25'1 2.0
2017-Oct-11 19:01N 50°54' W 001°25'56 3.0
2017-Oct-11 00:00N 50°32' W 000°03'510.7
2017-Oct-10 23:30N 50°32' E 000°06'5 9.3
2017-Oct-10 23:00N 50°33' E 000°13'5 9.7
2017-Oct-10 22:30N 50°33' E 000°21'4 8.3
2017-Oct-10 22:00N 50°34' E 000°27'4 8.9
2017-Oct-10 21:30N 50°36' E 000°33'5 9.3
2017-Oct-10 21:00N 50°38' E 000°40'5 9.7
2017-Oct-10 20:30N 50°41' E 000°46'713.5
2017-Oct-10 20:01N 50°44' E 000°56'815.5
2017-Oct-10 19:30N 50°49' E 001°06'815.2
2017-Oct-10 19:00N 50°53' E 001°15'714.7
2017-Oct-10 18:30N 50°58' E 001°23'713.9
2017-Oct-10 18:00N 51°03' E 001°31'612.9
2017-Oct-10 17:30N 51°08' E 001°38'612.9
2017-Oct-10 17:00N 51°13' E 001°45'612.4
2017-Oct-10 16:30N 51°18' E 001°51'612.5
2017-Oct-10 16:00N 51°23' E 001°56'612.8
2017-Oct-10 15:30N 51°29' E 002°01'815.4
2017-Oct-10 15:00N 51°35' E 002°09'1312.7
2017-Oct-10 13:59N 51°45' E 002°22'611.3
2017-Oct-10 13:29N 51°49' E 002°28'7311.7
2017-Oct-10 07:12N 52°47' E 003°42'210.1
2017-Oct-10 06:59N 52°48' E 003°44'710.8
2017-Oct-10 06:18N 52°54' E 003°52'5 9.8
2017-Oct-10 05:45N 52°58' E 003°58'4 9.9
2017-Oct-10 05:20N 53°00' E 004°04'310.2
2017-Oct-10 05:00N 53°03' E 004°08'510.8
2017-Oct-10 04:30N 53°06' E 004°15'611.5
2017-Oct-10 04:00N 53°10' E 004°22'611.8
2017-Oct-10 03:29N 53°15' E 004°28'1012.4
2017-Oct-10 02:40N 53°24' E 004°35'412.2
2017-Oct-10 02:22N 53°27' E 004°38'512.5
2017-Oct-10 02:00N 53°29' E 004°45'612.4
2017-Oct-10 01:30N 53°32' E 004°54'612.1
2017-Oct-10 01:00N 53°34' E 005°04'611.8
2017-Oct-10 00:30N 53°36' E 005°14'611.3
2017-Oct-09 23:57N 53°38' E 005°24'510.9
2017-Oct-09 23:28N 53°39' E 005°32'6911.1
2017-Oct-09 17:17N 53°58' E 007°24'512.6
2017-Oct-09 16:52N 53°59' E 007°33'411.7
2017-Oct-09 16:30N 53°59' E 007°40'812.0
2017-Oct-09 15:50N 53°53' E 007°49'411.5
2017-Oct-09 15:30N 53°52' E 007°56'816.2
2017-Oct-09 15:00N 53°48' E 008°08'917.4
2017-Oct-09 14:30N 53°42' E 008°19'713.8
2017-Oct-09 14:00N 53°38' E 008°27'5 9.4
2017-Oct-09 13:30N 53°34' E 008°32'0 0.7
2017-Oct-09 13:00N 53°34' E 008°33'0 0.9
2017-Oct-09 12:28N 53°35' E 008°33'0 0.0
2017-Oct-09 11:58N 53°35' E 008°33'0 0.0
2017-Oct-09 11:28N 53°35' E 008°33'0 0.0
2017-Oct-09 10:58N 53°35' E 008°33'0 0.0
2017-Oct-09 10:28N 53°35' E 008°33'0 0.0
2017-Oct-09 09:58N 53°35' E 008°33'0 0.0
2017-Oct-09 09:28N 53°35' E 008°33'0 0.0
2017-Oct-09 08:58N 53°35' E 008°33'0 0.0
2017-Oct-09 08:28N 53°35' E 008°33'0 0.0
2017-Oct-09 07:58N 53°35' E 008°33'0 0.0
2017-Oct-09 07:28N 53°35' E 008°33'0 0.0
2017-Oct-09 06:58N 53°35' E 008°33'0 0.0
2017-Oct-09 06:28N 53°35' E 008°33'0 0.0
2017-Oct-09 05:58N 53°35' E 008°33'0 0.0
2017-Oct-09 05:28N 53°35' E 008°33'0 0.0
2017-Oct-09 04:58N 53°35' E 008°33'0 0.0
2017-Oct-09 04:28N 53°35' E 008°33'0 0.0
2017-Oct-09 03:58N 53°35' E 008°33'0 0.0
2017-Oct-09 03:28N 53°35' E 008°33'0 0.0
2017-Oct-09 02:58N 53°35' E 008°33'0 0.0
2017-Oct-09 02:28N 53°35' E 008°33'0 0.0
2017-Oct-09 01:58N 53°35' E 008°33'0 0.0
2017-Oct-09 01:28N 53°35' E 008°33'0 0.0
2017-Oct-09 00:58N 53°35' E 008°33'0 0.0
2017-Oct-09 00:28N 53°35' E 008°33'0 0.0
2017-Oct-08 23:58N 53°35' E 008°33'0 0.0
2017-Oct-08 23:28N 53°35' E 008°33'0 0.0
2017-Oct-08 22:58N 53°35' E 008°33'0 0.0
2017-Oct-08 22:28N 53°35' E 008°33'0 0.0
2017-Oct-08 21:58N 53°35' E 008°33'0 0.0
2017-Oct-08 21:28N 53°35' E 008°33'0 0.0
2017-Oct-08 20:58N 53°35' E 008°33'0 0.0
2017-Oct-08 20:28N 53°35' E 008°33'0 0.0
2017-Oct-08 19:58N 53°35' E 008°33'0 0.0
2017-Oct-08 19:28N 53°35' E 008°33'0 0.0
2017-Oct-08 18:58N 53°35' E 008°33'0 0.0
2017-Oct-08 18:28N 53°35' E 008°33'0 0.0
2017-Oct-08 17:58N 53°35' E 008°33'0 0.0
2017-Oct-08 17:28N 53°35' E 008°33'0 0.0
2017-Oct-08 16:58N 53°35' E 008°33'0 0.0
2017-Oct-08 16:28N 53°35' E 008°33'0 0.0
2017-Oct-08 15:58N 53°35' E 008°33'0 0.0
2017-Oct-08 15:28N 53°35' E 008°33'0 0.0
2017-Oct-08 14:58N 53°35' E 008°33'0 0.0
2017-Oct-08 14:28N 53°35' E 008°33'0 0.0
2017-Oct-08 13:58N 53°35' E 008°33'0 0.0
2017-Oct-08 13:28N 53°35' E 008°33'0 0.0
2017-Oct-08 12:58N 53°35' E 008°33'0 0.0
2017-Oct-08 12:28N 53°35' E 008°33'0 0.0
2017-Oct-08 11:58N 53°35' E 008°33'0 0.0
2017-Oct-08 11:28N 53°35' E 008°33'0 0.0
2017-Oct-08 10:58N 53°35' E 008°33'0 0.0
2017-Oct-08 10:28N 53°35' E 008°33'0 0.0
2017-Oct-08 09:58N 53°35' E 008°33'0 0.0
2017-Oct-08 09:28N 53°35' E 008°33'0 0.0
2017-Oct-08 08:58N 53°35' E 008°33'0 0.0
2017-Oct-08 08:28N 53°35' E 008°33'0 0.8
2017-Oct-08 08:00N 53°34' E 008°33'0 0.2
2017-Oct-08 07:30N 53°34' E 008°33'0 0.6
2017-Oct-08 07:00N 53°34' E 008°32'4 8.4
2017-Oct-08 06:31N 53°37' E 008°28'713.2
2017-Oct-08 06:00N 53°42' E 008°20'713.4
2017-Oct-08 05:30N 53°46' E 008°11'611.9
2017-Oct-08 05:00N 53°50' E 008°04'612.6
2017-Oct-08 04:30N 53°52' E 007°53'4 7.8
2017-Oct-08 04:00N 53°53' E 007°47'1 2.8
2017-Oct-08 03:30N 53°53' E 007°45'713.2
2017-Oct-08 03:00N 53°54' E 007°34'7616.9
2017-Oct-07 22:30N 53°35' E 005°29'917.9
2017-Oct-07 22:00N 53°32' E 005°15'917.8
2017-Oct-07 21:30N 53°28' E 005°01'  
Track history (hours):
 
Tides and Currents Weather Stations Pressure Air Temp Water Temp Dewpoint Dewpoint Depression Visibility Wind Speed Wind Dir Waves Ship Positions

Cepheus Leader

Last reported at 2017-Oct-17 21:17 UTC. Time now 2017-Oct-18 04:06 UTC.
Position N 41°17' E 002°11'.

Length 199 m; draft 8.7 m.

Type: Cargo ship. MMSI: 372056000.

Date/timePositionNaut miles runAvg speedWind from/ knotsBaromVisibWave heightAir tempDewpointWater temp
2017-Oct-17 21:17N 41°17' E 002°11'2 0.1
2017-Oct-17 03:03N 41°19' E 002°10'0 8.2
2017-Oct-17 03:00N 41°18' E 002°11'3 6.6
2017-Oct-17 02:30N 41°15' E 002°12'4 7.4
2017-Oct-17 02:00N 41°11' E 002°11'612.8
2017-Oct-17 01:30N 41°06' E 002°07'917.3
2017-Oct-17 00:59N 40°58' E 002°01'917.6
2017-Oct-17 00:29N 40°50' E 001°55'20217.9
2017-Oct-16 13:15N 37°54' W 000°13'516.7
2017-Oct-16 12:55N 37°50' W 000°16'716.8
2017-Oct-16 12:30N 37°44' W 000°21'816.7
2017-Oct-16 12:00N 37°37' W 000°27'816.7
2017-Oct-16 11:30N 37°31' W 000°34'916.8
2017-Oct-16 11:00N 37°25' W 000°42'816.9
2017-Oct-16 10:30N 37°19' W 000°49'1016.9
2017-Oct-16 09:56N 37°13' W 000°59'20916.5
2017-Oct-15 21:16N 36°02' W 005°03'517.5
2017-Oct-15 21:00N 36°02' W 005°09'917.8
2017-Oct-15 20:30N 35°59' W 005°20'917.7
2017-Oct-15 20:00N 35°57' W 005°30'816.2
2017-Oct-15 19:30N 35°54' W 005°40'814.2
2017-Oct-15 18:58N 35°54' W 005°49'2315.7
2017-Oct-15 17:28N 35°54' W 006°18'4415.9
2017-Oct-15 14:41N 36°05' W 007°11'1116.6
2017-Oct-15 14:01N 36°08' W 007°25'816.4
2017-Oct-15 13:30N 36°10' W 007°34'816.4
2017-Oct-15 13:01N 36°13' W 007°44'816.2
2017-Oct-15 12:31N 36°15' W 007°54'816.5
2017-Oct-15 12:01N 36°17' W 008°04'816.7
2017-Oct-15 11:30N 36°19' W 008°14'816.5
2017-Oct-15 11:01N 36°21' W 008°24'816.4
2017-Oct-15 10:31N 36°23' W 008°34'816.5
2017-Oct-15 10:01N 36°25' W 008°44'816.9
2017-Oct-15 09:31N 36°27' W 008°54'917.7
2017-Oct-15 09:00N 36°30' W 009°04'917.2
2017-Oct-15 08:30N 36°33' W 009°14'917.1
2017-Oct-15 08:00N 36°38' W 009°23'917.5
2017-Oct-15 07:31N 36°44' W 009°30'816.4
2017-Oct-15 07:01N 36°52' W 009°35'917.1
2017-Oct-15 06:30N 36°60' W 009°37'1317.2
2017-Oct-15 05:43N 37°13' W 009°41'416.9
2017-Oct-15 05:29N 37°17' W 009°42'816.6
2017-Oct-15 05:00N 37°25' W 009°44'817.1
2017-Oct-15 04:31N 37°33' W 009°47'917.2
2017-Oct-15 04:00N 37°41' W 009°49'817.0
2017-Oct-15 03:31N 37°50' W 009°52'917.1
2017-Oct-15 03:01N 37°58' W 009°54'917.0
2017-Oct-15 02:31N 38°06' W 009°57'917.2
2017-Oct-15 02:01N 38°15' W 009°59'917.0
2017-Oct-15 01:31N 38°23' W 010°02'917.3
2017-Oct-15 01:01N 38°31' W 010°04'917.2
2017-Oct-15 00:31N 38°40' W 010°07'917.0
2017-Oct-15 00:00N 38°48' W 010°08'816.8
2017-Oct-14 23:31N 38°57' W 010°08'917.1
2017-Oct-14 23:01N 39°05' W 010°08'917.2
2017-Oct-14 22:30N 39°14' W 010°08'917.1
2017-Oct-14 22:01N 39°22' W 010°08'816.7
2017-Oct-14 21:30N 39°31' W 010°07'816.4
2017-Oct-14 21:00N 39°39' W 010°07'816.8
2017-Oct-14 20:31N 39°47' W 010°07'917.1
2017-Oct-14 20:00N 39°56' W 010°07'917.3
2017-Oct-14 19:30N 40°05' W 010°07'54216.3
2017-Oct-13 10:11N 48°38' W 006°03'1415.4
2017-Oct-13 09:18N 48°50' W 005°53'514.9
2017-Oct-13 08:57N 48°54' W 005°48'815.1
2017-Oct-13 08:26N 48°59' W 005°39'615.1
2017-Oct-13 08:00N 49°03' W 005°31'815.2
2017-Oct-13 07:30N 49°07' W 005°21'815.2
2017-Oct-13 06:59N 49°11' W 005°11'815.5
2017-Oct-13 06:30N 49°15' W 005°01'915.8
2017-Oct-13 05:57N 49°20' W 004°49'1216.1
2017-Oct-13 05:12N 49°25' W 004°33'316.2
2017-Oct-13 05:00N 49°27' W 004°29'816.1
2017-Oct-13 04:30N 49°31' W 004°18'816.3
2017-Oct-13 04:00N 49°35' W 004°07'816.1
2017-Oct-13 03:30N 49°38' W 003°56'815.9
2017-Oct-13 03:01N 49°42' W 003°46'815.7
2017-Oct-13 02:29N 49°47' W 003°34'715.2
2017-Oct-13 02:00N 49°50' W 003°25'815.0
2017-Oct-13 01:30N 49°54' W 003°15'714.9
2017-Oct-13 01:01N 49°57' W 003°04'714.8
2017-Oct-13 00:31N 49°60' W 002°54'714.8
2017-Oct-13 00:00N 50°02' W 002°43'714.7
2017-Oct-12 23:30N 50°05' W 002°32'914.9
2017-Oct-12 22:55N 50°08' W 002°19'1015.4
2017-Oct-12 22:17N 50°12' W 002°05'415.9
2017-Oct-12 22:01N 50°14' W 001°59'1316.6
2017-Oct-12 21:13N 50°20' W 001°41'417.3
2017-Oct-12 21:00N 50°22' W 001°36'917.5
2017-Oct-12 20:28N 50°26' W 001°23'818.0
2017-Oct-12 20:00N 50°30' W 001°12'917.9
2017-Oct-12 19:30N 50°35' W 000°60'713.4
2017-Oct-12 19:01N 50°42' W 000°58'611.2
2017-Oct-12 18:31N 50°45' W 001°06'713.8
2017-Oct-12 18:00N 50°46' W 001°16'4 8.0
2017-Oct-12 17:31N 50°50' W 001°19'4 8.9
2017-Oct-12 17:00N 50°53' W 001°24'1 2.5
2017-Oct-12 16:30N 50°54' W 001°25'0 0.0
2017-Oct-11 19:18N 50°54' W 001°25'1 2.0
2017-Oct-11 19:01N 50°54' W 001°25'56 3.0
2017-Oct-11 00:00N 50°32' W 000°03'510.7
2017-Oct-10 23:30N 50°32' E 000°06'5 9.3
2017-Oct-10 23:00N 50°33' E 000°13'5 9.7
2017-Oct-10 22:30N 50°33' E 000°21'4 8.3
2017-Oct-10 22:00N 50°34' E 000°27'4 8.9
2017-Oct-10 21:30N 50°36' E 000°33'5 9.3
2017-Oct-10 21:00N 50°38' E 000°40'5 9.7
2017-Oct-10 20:30N 50°41' E 000°46'713.5
2017-Oct-10 20:01N 50°44' E 000°56'815.5
2017-Oct-10 19:30N 50°49' E 001°06'815.2
2017-Oct-10 19:00N 50°53' E 001°15'714.7
2017-Oct-10 18:30N 50°58' E 001°23'713.9
2017-Oct-10 18:00N 51°03' E 001°31'612.9
2017-Oct-10 17:30N 51°08' E 001°38'612.9
2017-Oct-10 17:00N 51°13' E 001°45'612.4
2017-Oct-10 16:30N 51°18' E 001°51'612.5
2017-Oct-10 16:00N 51°23' E 001°56'612.8
2017-Oct-10 15:30N 51°29' E 002°01'815.4
2017-Oct-10 15:00N 51°35' E 002°09'1312.7
2017-Oct-10 13:59N 51°45' E 002°22'611.3
2017-Oct-10 13:29N 51°49' E 002°28'7311.7
2017-Oct-10 07:12N 52°47' E 003°42'210.1
2017-Oct-10 06:59N 52°48' E 003°44'710.8
2017-Oct-10 06:18N 52°54' E 003°52'5 9.8
2017-Oct-10 05:45N 52°58' E 003°58'4 9.9
2017-Oct-10 05:20N 53°00' E 004°04'310.2
2017-Oct-10 05:00N 53°03' E 004°08'510.8
2017-Oct-10 04:30N 53°06' E 004°15'611.5
2017-Oct-10 04:00N 53°10' E 004°22'611.8
2017-Oct-10 03:29N 53°15' E 004°28'1012.4
2017-Oct-10 02:40N 53°24' E 004°35'412.2
2017-Oct-10 02:22N 53°27' E 004°38'512.5
2017-Oct-10 02:00N 53°29' E 004°45'612.4
2017-Oct-10 01:30N 53°32' E 004°54'612.1
2017-Oct-10 01:00N 53°34' E 005°04'611.8
2017-Oct-10 00:30N 53°36' E 005°14'611.3
2017-Oct-09 23:57N 53°38' E 005°24'510.9
2017-Oct-09 23:28N 53°39' E 005°32'6911.1
2017-Oct-09 17:17N 53°58' E 007°24'512.6
2017-Oct-09 16:52N 53°59' E 007°33'411.7
2017-Oct-09 16:30N 53°59' E 007°40'812.0
2017-Oct-09 15:50N 53°53' E 007°49'411.5
2017-Oct-09 15:30N 53°52' E 007°56'816.2
2017-Oct-09 15:00N 53°48' E 008°08'917.4
2017-Oct-09 14:30N 53°42' E 008°19'713.8
2017-Oct-09 14:00N 53°38' E 008°27'5 9.4
2017-Oct-09 13:30N 53°34' E 008°32'0 0.7
2017-Oct-09 13:00N 53°34' E 008°33'0 0.9
2017-Oct-09 12:28N 53°35' E 008°33'0 0.0
2017-Oct-09 11:58N 53°35' E 008°33'0 0.0
2017-Oct-09 11:28N 53°35' E 008°33'0 0.0
2017-Oct-09 10:58N 53°35' E 008°33'0 0.0
2017-Oct-09 10:28N 53°35' E 008°33'0 0.0
2017-Oct-09 09:58N 53°35' E 008°33'0 0.0
2017-Oct-09 09:28N 53°35' E 008°33'0 0.0
2017-Oct-09 08:58N 53°35' E 008°33'0 0.0
2017-Oct-09 08:28N 53°35' E 008°33'0 0.0
2017-Oct-09 07:58N 53°35' E 008°33'0 0.0
2017-Oct-09 07:28N 53°35' E 008°33'0 0.0
2017-Oct-09 06:58N 53°35' E 008°33'0 0.0
2017-Oct-09 06:28N 53°35' E 008°33'0 0.0
2017-Oct-09 05:58N 53°35' E 008°33'0 0.0
2017-Oct-09 05:28N 53°35' E 008°33'0 0.0
2017-Oct-09 04:58N 53°35' E 008°33'0 0.0
2017-Oct-09 04:28N 53°35' E 008°33'0 0.0
2017-Oct-09 03:58N 53°35' E 008°33'0 0.0
2017-Oct-09 03:28N 53°35' E 008°33'0 0.0
2017-Oct-09 02:58N 53°35' E 008°33'0 0.0
2017-Oct-09 02:28N 53°35' E 008°33'0 0.0
2017-Oct-09 01:58N 53°35' E 008°33'0 0.0
2017-Oct-09 01:28N 53°35' E 008°33'0 0.0
2017-Oct-09 00:58N 53°35' E 008°33'0 0.0
2017-Oct-09 00:28N 53°35' E 008°33'0 0.0
2017-Oct-08 23:58N 53°35' E 008°33'0 0.0
2017-Oct-08 23:28N 53°35' E 008°33'0 0.0
2017-Oct-08 22:58N 53°35' E 008°33'0 0.0
2017-Oct-08 22:28N 53°35' E 008°33'0 0.0
2017-Oct-08 21:58N 53°35' E 008°33'0 0.0
2017-Oct-08 21:28N 53°35' E 008°33'0 0.0
2017-Oct-08 20:58N 53°35' E 008°33'0 0.0
2017-Oct-08 20:28N 53°35' E 008°33'0 0.0
2017-Oct-08 19:58N 53°35' E 008°33'0 0.0
2017-Oct-08 19:28N 53°35' E 008°33'0 0.0
2017-Oct-08 18:58N 53°35' E 008°33'0 0.0
2017-Oct-08 18:28N 53°35' E 008°33'0 0.0
2017-Oct-08 17:58N 53°35' E 008°33'0 0.0
2017-Oct-08 17:28N 53°35' E 008°33'0 0.0
2017-Oct-08 16:58N 53°35' E 008°33'0 0.0
2017-Oct-08 16:28N 53°35' E 008°33'0 0.0
2017-Oct-08 15:58N 53°35' E 008°33'0 0.0
2017-Oct-08 15:28N 53°35' E 008°33'0 0.0
2017-Oct-08 14:58N 53°35' E 008°33'0 0.0
2017-Oct-08 14:28N 53°35' E 008°33'0 0.0
2017-Oct-08 13:58N 53°35' E 008°33'0 0.0
2017-Oct-08 13:28N 53°35' E 008°33'0 0.0
2017-Oct-08 12:58N 53°35' E 008°33'0 0.0
2017-Oct-08 12:28N 53°35' E 008°33'0 0.0
2017-Oct-08 11:58N 53°35' E 008°33'0 0.0
2017-Oct-08 11:28N 53°35' E 008°33'0 0.0
2017-Oct-08 10:58N 53°35' E 008°33'0 0.0
2017-Oct-08 10:28N 53°35' E 008°33'0 0.0
2017-Oct-08 09:58N 53°35' E 008°33'0 0.0
2017-Oct-08 09:28N 53°35' E 008°33'0 0.0
2017-Oct-08 08:58N 53°35' E 008°33'0 0.0
2017-Oct-08 08:28N 53°35' E 008°33'0 0.8
2017-Oct-08 08:00N 53°34' E 008°33'0 0.2
2017-Oct-08 07:30N 53°34' E 008°33'0 0.6
2017-Oct-08 07:00N 53°34' E 008°32'4 8.4
2017-Oct-08 06:31N 53°37' E 008°28'713.2
2017-Oct-08 06:00N 53°42' E 008°20'713.4
2017-Oct-08 05:30N 53°46' E 008°11'611.9
2017-Oct-08 05:00N 53°50' E 008°04'612.6
2017-Oct-08 04:30N 53°52' E 007°53'4 7.8
2017-Oct-08 04:00N 53°53' E 007°47'1 2.8
2017-Oct-08 03:30N 53°53' E 007°45'713.2
2017-Oct-08 03:00N 53°54' E 007°34'7616.9
2017-Oct-07 22:30N 53°35' E 005°29'917.9
2017-Oct-07 22:00N 53°32' E 005°15'917.8
2017-Oct-07 21:30N 53°28' E 005°01'  

Dump ship's entire track history